sensor_id;sensor_type;location;lat;lon;timestamp;P1;durP1;ratioP1;P2;durP2;ratioP2
67717;SDS011;54511;47.532;19.180;2023-07-22T00:01:37;2.42;;;2.05;;
67717;SDS011;54511;47.532;19.180;2023-07-22T00:04:16;2.70;;;1.60;;
67717;SDS011;54511;47.532;19.180;2023-07-22T00:07:03;2.10;;;1.40;;
67717;SDS011;54511;47.532;19.180;2023-07-22T00:10:03;1.60;;;1.45;;
67717;SDS011;54511;47.532;19.180;2023-07-22T00:13:10;2.30;;;1.33;;
67717;SDS011;54511;47.532;19.180;2023-07-22T00:16:17;3.25;;;1.52;;
67717;SDS011;54511;47.532;19.180;2023-07-22T00:18:45;2.15;;;1.55;;
67717;SDS011;54511;47.532;19.180;2023-07-22T00:21:33;2.30;;;1.70;;
67717;SDS011;54511;47.532;19.180;2023-07-22T00:24:06;2.25;;;1.90;;
67717;SDS011;54511;47.532;19.180;2023-07-22T00:26:51;3.83;;;2.03;;
67717;SDS011;54511;47.532;19.180;2023-07-22T00:30:08;2.05;;;1.35;;
67717;SDS011;54511;47.532;19.180;2023-07-22T00:32:57;2.37;;;1.35;;
67717;SDS011;54511;47.532;19.180;2023-07-22T00:35:24;3.08;;;1.67;;
67717;SDS011;54511;47.532;19.180;2023-07-22T00:38:35;4.30;;;2.47;;
67717;SDS011;54511;47.532;19.180;2023-07-22T00:41:42;2.15;;;1.83;;
67717;SDS011;54511;47.532;19.180;2023-07-22T00:44:33;3.08;;;1.55;;
67717;SDS011;54511;47.532;19.180;2023-07-22T00:47:41;3.92;;;1.55;;
67717;SDS011;54511;47.532;19.180;2023-07-22T00:50:28;2.58;;;1.67;;
67717;SDS011;54511;47.532;19.180;2023-07-22T00:53:35;2.58;;;1.50;;
67717;SDS011;54511;47.532;19.180;2023-07-22T00:56:23;2.05;;;1.58;;
67717;SDS011;54511;47.532;19.180;2023-07-22T00:59:12;2.72;;;1.70;;
67717;SDS011;54511;47.532;19.180;2023-07-22T01:02:06;2.05;;;1.67;;
67717;SDS011;54511;47.532;19.180;2023-07-22T01:04:36;2.20;;;1.15;;
67717;SDS011;54511;47.532;19.180;2023-07-22T01:07:07;3.03;;;1.98;;
67717;SDS011;54511;47.532;19.180;2023-07-22T01:09:55;2.03;;;1.12;;
67717;SDS011;54511;47.532;19.180;2023-07-22T01:12:56;2.95;;;2.03;;
67717;SDS011;54511;47.532;19.180;2023-07-22T01:15:25;4.75;;;1.70;;
67717;SDS011;54511;47.532;19.180;2023-07-22T01:17:55;4.28;;;2.10;;
67717;SDS011;54511;47.532;19.180;2023-07-22T01:20:41;4.70;;;2.22;;
67717;SDS011;54511;47.532;19.180;2023-07-22T01:23:50;1.40;;;1.27;;
67717;SDS011;54511;47.532;19.180;2023-07-22T01:26:22;4.97;;;2.17;;
67717;SDS011;54511;47.532;19.180;2023-07-22T01:29:17;1.60;;;1.15;;
67717;SDS011;54511;47.532;19.180;2023-07-22T01:32:09;3.50;;;2.03;;
67717;SDS011;54511;47.532;19.180;2023-07-22T01:34:37;2.70;;;1.50;;
67717;SDS011;54511;47.532;19.180;2023-07-22T01:37:13;2.58;;;1.42;;
67717;SDS011;54511;47.532;19.180;2023-07-22T01:39:42;4.85;;;2.10;;
67717;SDS011;54511;47.532;19.180;2023-07-22T01:42:25;2.87;;;1.80;;
67717;SDS011;54511;47.532;19.180;2023-07-22T01:45:12;2.95;;;1.42;;
67717;SDS011;54511;47.532;19.180;2023-07-22T01:48:19;2.40;;;1.55;;
67717;SDS011;54511;47.532;19.180;2023-07-22T01:50:48;2.00;;;1.15;;
67717;SDS011;54511;47.532;19.180;2023-07-22T01:53:40;1.90;;;1.52;;
67717;SDS011;54511;47.532;19.180;2023-07-22T01:56:17;1.65;;;1.40;;
67717;SDS011;54511;47.532;19.180;2023-07-22T01:58:45;3.08;;;1.58;;
67717;SDS011;54511;47.532;19.180;2023-07-22T02:01:13;1.98;;;1.42;;
67717;SDS011;54511;47.532;19.180;2023-07-22T02:04:20;2.20;;;1.65;;
67717;SDS011;54511;47.532;19.180;2023-07-22T02:07:06;2.83;;;1.55;;
67717;SDS011;54511;47.532;19.180;2023-07-22T02:09:35;2.28;;;1.48;;
67717;SDS011;54511;47.532;19.180;2023-07-22T02:12:08;2.20;;;2.00;;
67717;SDS011;54511;47.532;19.180;2023-07-22T02:14:56;1.60;;;1.42;;
67717;SDS011;54511;47.532;19.180;2023-07-22T02:17:25;2.53;;;1.98;;
67717;SDS011;54511;47.532;19.180;2023-07-22T02:20:08;7.93;;;2.20;;
67717;SDS011;54511;47.532;19.180;2023-07-22T02:22:36;3.22;;;1.87;;
67717;SDS011;54511;47.532;19.180;2023-07-22T02:25:04;2.65;;;1.65;;
67717;SDS011;54511;47.532;19.180;2023-07-22T02:27:34;3.80;;;1.85;;
67717;SDS011;54511;47.532;19.180;2023-07-22T02:30:04;4.07;;;2.28;;
67717;SDS011;54511;47.532;19.180;2023-07-22T02:35:22;1.55;;;1.45;;
67717;SDS011;54511;47.532;19.180;2023-07-22T02:37:50;5.37;;;2.90;;
67717;SDS011;54511;47.532;19.180;2023-07-22T02:40:17;1.90;;;1.50;;
67717;SDS011;54511;47.532;19.180;2023-07-22T02:43:05;2.67;;;2.05;;
67717;SDS011;54511;47.532;19.180;2023-07-22T02:45:52;4.62;;;2.17;;
67717;SDS011;54511;47.532;19.180;2023-07-22T02:48:20;2.65;;;1.40;;
67717;SDS011;54511;47.532;19.180;2023-07-22T02:50:47;2.97;;;2.05;;
67717;SDS011;54511;47.532;19.180;2023-07-22T02:53:18;2.35;;;1.73;;
67717;SDS011;54511;47.532;19.180;2023-07-22T02:55:46;3.25;;;1.77;;
67717;SDS011;54511;47.532;19.180;2023-07-22T02:58:16;2.45;;;1.65;;
67717;SDS011;54511;47.532;19.180;2023-07-22T03:00:43;3.05;;;1.58;;
67717;SDS011;54511;47.532;19.180;2023-07-22T03:03:10;2.90;;;1.83;;
67717;SDS011;54511;47.532;19.180;2023-07-22T03:05:38;3.20;;;1.73;;
67717;SDS011;54511;47.532;19.180;2023-07-22T03:08:06;2.83;;;1.77;;
67717;SDS011;54511;47.532;19.180;2023-07-22T03:10:33;4.28;;;1.95;;
67717;SDS011;54511;47.532;19.180;2023-07-22T03:13:01;2.25;;;1.55;;
67717;SDS011;54511;47.532;19.180;2023-07-22T03:15:30;3.33;;;1.60;;
67717;SDS011;54511;47.532;19.180;2023-07-22T03:17:57;1.25;;;1.15;;
67717;SDS011;54511;47.532;19.180;2023-07-22T03:20:26;2.05;;;1.25;;
67717;SDS011;54511;47.532;19.180;2023-07-22T03:22:53;1.48;;;1.33;;
67717;SDS011;54511;47.532;19.180;2023-07-22T03:25:20;2.12;;;1.85;;
67717;SDS011;54511;47.532;19.180;2023-07-22T03:27:47;2.53;;;1.42;;
67717;SDS011;54511;47.532;19.180;2023-07-22T03:30:15;1.58;;;1.48;;
67717;SDS011;54511;47.532;19.180;2023-07-22T03:32:53;2.35;;;1.23;;
67717;SDS011;54511;47.532;19.180;2023-07-22T03:35:21;1.75;;;1.42;;
67717;SDS011;54511;47.532;19.180;2023-07-22T03:37:48;11.35;;;2.35;;
67717;SDS011;54511;47.532;19.180;2023-07-22T03:40:16;3.62;;;1.92;;
67717;SDS011;54511;47.532;19.180;2023-07-22T03:42:54;2.75;;;1.37;;
67717;SDS011;54511;47.532;19.180;2023-07-22T03:45:33;3.47;;;1.70;;
67717;SDS011;54511;47.532;19.180;2023-07-22T03:48:02;4.18;;;2.28;;
67717;SDS011;54511;47.532;19.180;2023-07-22T03:50:29;2.90;;;2.00;;
67717;SDS011;54511;47.532;19.180;2023-07-22T03:52:57;2.95;;;2.20;;
67717;SDS011;54511;47.532;19.180;2023-07-22T03:55:24;2.30;;;1.52;;
67717;SDS011;54511;47.532;19.180;2023-07-22T03:57:51;1.30;;;1.20;;
67717;SDS011;54511;47.532;19.180;2023-07-22T04:00:20;3.85;;;2.15;;
67717;SDS011;54511;47.532;19.180;2023-07-22T04:02:47;2.45;;;1.60;;
67717;SDS011;54511;47.532;19.180;2023-07-22T04:05:16;2.45;;;1.70;;
67717;SDS011;54511;47.532;19.180;2023-07-22T04:07:44;3.10;;;1.70;;
67717;SDS011;54511;47.532;19.180;2023-07-22T04:10:11;2.80;;;1.67;;
67717;SDS011;54511;47.532;19.180;2023-07-22T04:12:39;1.65;;;1.52;;
67717;SDS011;54511;47.532;19.180;2023-07-22T04:15:06;2.83;;;1.65;;
67717;SDS011;54511;47.532;19.180;2023-07-22T04:17:34;2.10;;;1.60;;
67717;SDS011;54511;47.532;19.180;2023-07-22T04:20:01;2.58;;;1.40;;
67717;SDS011;54511;47.532;19.180;2023-07-22T04:22:30;2.70;;;2.00;;
67717;SDS011;54511;47.532;19.180;2023-07-22T04:24:57;2.72;;;1.73;;
67717;SDS011;54511;47.532;19.180;2023-07-22T04:27:33;3.47;;;2.35;;
67717;SDS011;54511;47.532;19.180;2023-07-22T04:30:00;2.17;;;1.58;;
67717;SDS011;54511;47.532;19.180;2023-07-22T04:32:28;3.40;;;1.60;;
67717;SDS011;54511;47.532;19.180;2023-07-22T04:34:55;2.60;;;1.80;;
67717;SDS011;54511;47.532;19.180;2023-07-22T04:37:22;3.25;;;2.15;;
67717;SDS011;54511;47.532;19.180;2023-07-22T04:40:38;3.25;;;2.17;;
67717;SDS011;54511;47.532;19.180;2023-07-22T04:44:06;6.35;;;2.03;;
67717;SDS011;54511;47.532;19.180;2023-07-22T04:47:13;7.15;;;2.15;;
67717;SDS011;54511;47.532;19.180;2023-07-22T04:50:35;4.03;;;2.08;;
67717;SDS011;54511;47.532;19.180;2023-07-22T04:53:23;3.35;;;2.42;;
67717;SDS011;54511;47.532;19.180;2023-07-22T05:13:00;2.45;;;1.65;;
67717;SDS011;54511;47.532;19.180;2023-07-22T05:16:27;2.53;;;1.85;;
67717;SDS011;54511;47.532;19.180;2023-07-22T05:19:49;2.87;;;1.40;;
67717;SDS011;54511;47.532;19.180;2023-07-22T05:23:19;5.53;;;1.90;;
67717;SDS011;54511;47.532;19.180;2023-07-22T05:26:07;3.10;;;1.98;;
67717;SDS011;54511;47.532;19.180;2023-07-22T05:29:17;2.35;;;1.77;;
67717;SDS011;54511;47.532;19.180;2023-07-22T05:32:24;2.87;;;1.48;;
67717;SDS011;54511;47.532;19.180;2023-07-22T05:35:45;3.35;;;2.35;;
67717;SDS011;54511;47.532;19.180;2023-07-22T05:38:35;2.05;;;1.87;;
67717;SDS011;54511;47.532;19.180;2023-07-22T05:41:43;3.97;;;1.98;;
67717;SDS011;54511;47.532;19.180;2023-07-22T05:45:12;2.95;;;1.70;;
67717;SDS011;54511;47.532;19.180;2023-07-22T05:48:42;2.28;;;1.58;;
67717;SDS011;54511;47.532;19.180;2023-07-22T05:51:49;2.50;;;1.67;;
67717;SDS011;54511;47.532;19.180;2023-07-22T05:54:59;3.12;;;1.77;;
67717;SDS011;54511;47.532;19.180;2023-07-22T05:58:26;3.65;;;2.33;;
67717;SDS011;54511;47.532;19.180;2023-07-22T06:01:39;2.75;;;2.15;;
67717;SDS011;54511;47.532;19.180;2023-07-22T06:05:27;3.08;;;2.17;;
67717;SDS011;54511;47.532;19.180;2023-07-22T06:08:19;3.45;;;2.58;;
67717;SDS011;54511;47.532;19.180;2023-07-22T06:11:42;4.23;;;2.47;;
67717;SDS011;54511;47.532;19.180;2023-07-22T06:14:11;5.20;;;2.40;;
67717;SDS011;54511;47.532;19.180;2023-07-22T06:16:39;4.15;;;2.10;;
67717;SDS011;54511;47.532;19.180;2023-07-22T06:19:11;4.43;;;2.70;;
67717;SDS011;54511;47.532;19.180;2023-07-22T06:21:58;3.55;;;1.80;;
67717;SDS011;54511;47.532;19.180;2023-07-22T06:25:05;2.35;;;1.90;;
67717;SDS011;54511;47.532;19.180;2023-07-22T06:28:12;2.33;;;2.12;;
67717;SDS011;54511;47.532;19.180;2023-07-22T06:31:47;2.90;;;1.60;;
67717;SDS011;54511;47.532;19.180;2023-07-22T06:34:34;3.17;;;1.90;;
67717;SDS011;54511;47.532;19.180;2023-07-22T06:37:22;2.70;;;1.90;;
67717;SDS011;54511;47.532;19.180;2023-07-22T06:40:37;7.68;;;2.62;;
67717;SDS011;54511;47.532;19.180;2023-07-22T06:43:41;4.28;;;2.37;;
67717;SDS011;54511;47.532;19.180;2023-07-22T06:46:30;4.62;;;2.12;;
67717;SDS011;54511;47.532;19.180;2023-07-22T06:49:02;2.95;;;1.50;;
67717;SDS011;54511;47.532;19.180;2023-07-22T06:51:38;2.42;;;1.62;;
67717;SDS011;54511;47.532;19.180;2023-07-22T06:54:30;3.17;;;1.80;;
67717;SDS011;54511;47.532;19.180;2023-07-22T06:56:59;2.22;;;1.80;;
67717;SDS011;54511;47.532;19.180;2023-07-22T06:59:26;2.47;;;1.87;;
67717;SDS011;54511;47.532;19.180;2023-07-22T07:01:53;3.75;;;2.22;;
67717;SDS011;54511;47.532;19.180;2023-07-22T07:04:22;2.10;;;1.48;;
67717;SDS011;54511;47.532;19.180;2023-07-22T07:07:10;3.65;;;2.12;;
67717;SDS011;54511;47.532;19.180;2023-07-22T07:09:37;2.75;;;1.80;;
67717;SDS011;54511;47.532;19.180;2023-07-22T07:12:44;3.05;;;1.85;;
67717;SDS011;54511;47.532;19.180;2023-07-22T07:15:51;2.83;;;1.58;;
67717;SDS011;54511;47.532;19.180;2023-07-22T07:18:22;3.08;;;1.87;;
67717;SDS011;54511;47.532;19.180;2023-07-22T07:21:10;4.45;;;2.22;;
67717;SDS011;54511;47.532;19.180;2023-07-22T07:24:07;3.37;;;1.95;;
67717;SDS011;54511;47.532;19.180;2023-07-22T07:26:52;2.40;;;1.80;;
67717;SDS011;54511;47.532;19.180;2023-07-22T07:29:25;3.87;;;2.10;;
67717;SDS011;54511;47.532;19.180;2023-07-22T07:31:55;2.30;;;1.73;;
67717;SDS011;54511;47.532;19.180;2023-07-22T07:34:27;2.72;;;1.87;;
67717;SDS011;54511;47.532;19.180;2023-07-22T07:37:16;2.67;;;2.20;;
67717;SDS011;54511;47.532;19.180;2023-07-22T07:39:43;4.78;;;2.55;;
67717;SDS011;54511;47.532;19.180;2023-07-22T07:42:39;4.40;;;2.37;;
67717;SDS011;54511;47.532;19.180;2023-07-22T07:45:07;5.40;;;1.98;;
67717;SDS011;54511;47.532;19.180;2023-07-22T07:47:45;3.75;;;2.53;;
67717;SDS011;54511;47.532;19.180;2023-07-22T07:50:12;3.55;;;2.20;;
67717;SDS011;54511;47.532;19.180;2023-07-22T07:53:06;4.00;;;2.53;;
67717;SDS011;54511;47.532;19.180;2023-07-22T07:58:03;3.45;;;2.00;;
67717;SDS011;54511;47.532;19.180;2023-07-22T08:00:30;4.55;;;2.40;;
67717;SDS011;54511;47.532;19.180;2023-07-22T08:02:57;3.58;;;2.45;;
67717;SDS011;54511;47.532;19.180;2023-07-22T08:05:29;3.97;;;2.20;;
67717;SDS011;54511;47.532;19.180;2023-07-22T08:07:56;5.03;;;2.42;;
67717;SDS011;54511;47.532;19.180;2023-07-22T08:10:56;2.22;;;2.00;;
67717;SDS011;54511;47.532;19.180;2023-07-22T08:13:24;3.67;;;2.42;;
67717;SDS011;54511;47.532;19.180;2023-07-22T08:16:11;5.90;;;1.70;;
67717;SDS011;54511;47.532;19.180;2023-07-22T08:18:43;3.15;;;1.70;;
67717;SDS011;54511;47.532;19.180;2023-07-22T08:21:12;3.22;;;2.03;;
67717;SDS011;54511;47.532;19.180;2023-07-22T08:23:40;5.72;;;2.25;;
67717;SDS011;54511;47.532;19.180;2023-07-22T08:26:11;2.45;;;1.87;;
67717;SDS011;54511;47.532;19.180;2023-07-22T08:29:06;3.10;;;1.75;;
67717;SDS011;54511;47.532;19.180;2023-07-22T08:31:36;2.30;;;1.50;;
67717;SDS011;54511;47.532;19.180;2023-07-22T08:34:03;3.37;;;1.92;;
67717;SDS011;54511;47.532;19.180;2023-07-22T08:36:34;2.22;;;1.58;;
67717;SDS011;54511;47.532;19.180;2023-07-22T08:39:04;2.67;;;1.90;;
67717;SDS011;54511;47.532;19.180;2023-07-22T08:41:34;2.37;;;2.03;;
67717;SDS011;54511;47.532;19.180;2023-07-22T08:44:01;2.15;;;1.65;;
67717;SDS011;54511;47.532;19.180;2023-07-22T08:46:31;1.98;;;1.40;;
67717;SDS011;54511;47.532;19.180;2023-07-22T08:49:00;1.73;;;1.48;;
67717;SDS011;54511;47.532;19.180;2023-07-22T08:51:27;5.78;;;2.12;;
67717;SDS011;54511;47.532;19.180;2023-07-22T08:54:03;2.92;;;1.83;;
67717;SDS011;54511;47.532;19.180;2023-07-22T08:56:55;2.53;;;1.92;;
67717;SDS011;54511;47.532;19.180;2023-07-22T08:59:41;3.42;;;2.20;;
67717;SDS011;54511;47.532;19.180;2023-07-22T09:02:08;2.95;;;1.70;;
67717;SDS011;54511;47.532;19.180;2023-07-22T09:04:37;1.65;;;1.50;;
67717;SDS011;54511;47.532;19.180;2023-07-22T09:07:04;1.65;;;1.50;;
67717;SDS011;54511;47.532;19.180;2023-07-22T09:10:35;3.28;;;1.70;;
67717;SDS011;54511;47.532;19.180;2023-07-22T09:13:04;2.63;;;1.90;;
67717;SDS011;54511;47.532;19.180;2023-07-22T09:15:32;2.78;;;1.58;;
67717;SDS011;54511;47.532;19.180;2023-07-22T09:20:29;2.40;;;1.83;;
67717;SDS011;54511;47.532;19.180;2023-07-22T09:26:14;2.30;;;1.87;;
67717;SDS011;54511;47.532;19.180;2023-07-22T09:28:47;3.05;;;1.70;;
67717;SDS011;54511;47.532;19.180;2023-07-22T09:31:20;2.53;;;1.90;;
67717;SDS011;54511;47.532;19.180;2023-07-22T09:33:47;1.98;;;1.48;;
67717;SDS011;54511;47.532;19.180;2023-07-22T09:36:15;1.95;;;1.73;;
67717;SDS011;54511;47.532;19.180;2023-07-22T09:38:44;2.22;;;1.58;;
67717;SDS011;54511;47.532;19.180;2023-07-22T09:41:12;2.90;;;1.83;;
67717;SDS011;54511;47.532;19.180;2023-07-22T09:43:40;2.55;;;1.40;;
67717;SDS011;54511;47.532;19.180;2023-07-22T09:46:09;3.70;;;1.73;;
67717;SDS011;54511;47.532;19.180;2023-07-22T09:48:41;1.60;;;1.40;;
67717;SDS011;54511;47.532;19.180;2023-07-22T09:51:55;2.72;;;1.70;;
67717;SDS011;54511;47.532;19.180;2023-07-22T09:54:51;2.72;;;1.62;;
67717;SDS011;54511;47.532;19.180;2023-07-22T09:57:24;2.87;;;1.87;;
67717;SDS011;54511;47.532;19.180;2023-07-22T09:59:52;1.40;;;1.30;;
67717;SDS011;54511;47.532;19.180;2023-07-22T10:02:24;1.30;;;1.10;;
67717;SDS011;54511;47.532;19.180;2023-07-22T10:04:52;2.28;;;1.48;;
67717;SDS011;54511;47.532;19.180;2023-07-22T10:07:21;2.03;;;1.40;;
67717;SDS011;54511;47.532;19.180;2023-07-22T10:10:32;1.37;;;1.27;;
67717;SDS011;54511;47.532;19.180;2023-07-22T10:13:06;5.47;;;1.62;;
67717;SDS011;54511;47.532;19.180;2023-07-22T10:15:34;2.12;;;1.55;;
67717;SDS011;54511;47.532;19.180;2023-07-22T10:18:05;1.42;;;1.23;;
67717;SDS011;54511;47.532;19.180;2023-07-22T10:20:52;4.25;;;1.60;;
67717;SDS011;54511;47.532;19.180;2023-07-22T10:23:20;1.60;;;1.50;;
67717;SDS011;54511;47.532;19.180;2023-07-22T10:25:49;1.33;;;1.10;;
67717;SDS011;54511;47.532;19.180;2023-07-22T10:28:40;4.00;;;1.45;;
67717;SDS011;54511;47.532;19.180;2023-07-22T10:31:15;2.03;;;1.58;;
67717;SDS011;54511;47.532;19.180;2023-07-22T10:33:48;1.15;;;1.02;;
67717;SDS011;54511;47.532;19.180;2023-07-22T10:36:56;1.17;;;0.90;;
67717;SDS011;54511;47.532;19.180;2023-07-22T10:39:32;1.52;;;1.10;;
67717;SDS011;54511;47.532;19.180;2023-07-22T10:42:03;1.08;;;0.98;;
67717;SDS011;54511;47.532;19.180;2023-07-22T10:44:34;0.93;;;0.90;;
67717;SDS011;54511;47.532;19.180;2023-07-22T10:47:05;1.50;;;0.90;;
67717;SDS011;54511;47.532;19.180;2023-07-22T10:50:38;2.08;;;1.27;;
67717;SDS011;54511;47.532;19.180;2023-07-22T10:53:30;1.98;;;1.15;;
67717;SDS011;54511;47.532;19.180;2023-07-22T10:56:18;1.02;;;0.88;;
67717;SDS011;54511;47.532;19.180;2023-07-22T10:58:59;2.12;;;1.37;;
67717;SDS011;54511;47.532;19.180;2023-07-22T11:04:44;1.83;;;1.05;;
67717;SDS011;54511;47.532;19.180;2023-07-22T11:07:42;3.67;;;1.08;;
67717;SDS011;54511;47.532;19.180;2023-07-22T11:10:52;1.55;;;1.00;;
67717;SDS011;54511;47.532;19.180;2023-07-22T11:13:39;1.00;;;0.77;;
67717;SDS011;54511;47.532;19.180;2023-07-22T11:16:13;1.23;;;1.02;;
67717;SDS011;54511;47.532;19.180;2023-07-22T11:18:45;2.75;;;1.08;;
67717;SDS011;54511;47.532;19.180;2023-07-22T11:21:38;1.05;;;0.95;;
67717;SDS011;54511;47.532;19.180;2023-07-22T11:24:05;1.98;;;0.95;;
67717;SDS011;54511;47.532;19.180;2023-07-22T11:26:38;1.65;;;1.05;;
67717;SDS011;54511;47.532;19.180;2023-07-22T11:29:14;0.98;;;0.73;;
67717;SDS011;54511;47.532;19.180;2023-07-22T11:31:57;1.77;;;0.93;;
67717;SDS011;54511;47.532;19.180;2023-07-22T11:34:55;1.33;;;0.88;;
67717;SDS011;54511;47.532;19.180;2023-07-22T11:38:22;1.08;;;0.80;;
67717;SDS011;54511;47.532;19.180;2023-07-22T11:41:34;1.10;;;0.85;;
67717;SDS011;54511;47.532;19.180;2023-07-22T11:44:22;1.10;;;0.93;;
67717;SDS011;54511;47.532;19.180;2023-07-22T11:47:30;1.95;;;1.10;;
67717;SDS011;54511;47.532;19.180;2023-07-22T11:50:00;0.75;;;0.75;;
67717;SDS011;54511;47.532;19.180;2023-07-22T11:52:56;0.73;;;0.62;;
67717;SDS011;54511;47.532;19.180;2023-07-22T11:55:42;1.65;;;0.98;;
67717;SDS011;54511;47.532;19.180;2023-07-22T11:58:30;0.77;;;0.77;;
67717;SDS011;54511;47.532;19.180;2023-07-22T12:01:05;1.62;;;0.80;;
67717;SDS011;54511;47.532;19.180;2023-07-22T12:04:23;1.73;;;0.80;;
67717;SDS011;54511;47.532;19.180;2023-07-22T12:06:58;0.70;;;0.65;;
67717;SDS011;54511;47.532;19.180;2023-07-22T12:10:23;1.23;;;0.75;;
67717;SDS011;54511;47.532;19.180;2023-07-22T12:12:51;0.80;;;0.80;;
67717;SDS011;54511;47.532;19.180;2023-07-22T12:15:59;0.65;;;0.65;;
67717;SDS011;54511;47.532;19.180;2023-07-22T12:19:34;1.15;;;1.05;;
67717;SDS011;54511;47.532;19.180;2023-07-22T12:23:01;0.80;;;0.80;;
67717;SDS011;54511;47.532;19.180;2023-07-22T12:26:11;1.77;;;0.88;;
67717;SDS011;54511;47.532;19.180;2023-07-22T12:29:00;0.93;;;0.80;;
67717;SDS011;54511;47.532;19.180;2023-07-22T12:31:29;0.93;;;0.75;;
67717;SDS011;54511;47.532;19.180;2023-07-22T12:34:16;0.70;;;0.70;;
67717;SDS011;54511;47.532;19.180;2023-07-22T12:36:46;1.45;;;0.93;;
67717;SDS011;54511;47.532;19.180;2023-07-22T12:43:38;0.60;;;0.60;;
67717;SDS011;54511;47.532;19.180;2023-07-22T12:46:08;0.88;;;0.88;;
67717;SDS011;54511;47.532;19.180;2023-07-22T12:48:40;0.70;;;0.70;;
67717;SDS011;54511;47.532;19.180;2023-07-22T12:51:27;0.60;;;0.60;;
67717;SDS011;54511;47.532;19.180;2023-07-22T12:54:14;0.73;;;0.70;;
67717;SDS011;54511;47.532;19.180;2023-07-22T12:57:04;0.75;;;0.60;;
67717;SDS011;54511;47.532;19.180;2023-07-22T13:00:24;0.90;;;0.90;;
67717;SDS011;54511;47.532;19.180;2023-07-22T13:02:52;0.88;;;0.70;;
67717;SDS011;54511;47.532;19.180;2023-07-22T13:05:43;0.70;;;0.70;;
67717;SDS011;54511;47.532;19.180;2023-07-22T13:08:30;1.42;;;0.98;;
67717;SDS011;54511;47.532;19.180;2023-07-22T13:11:41;0.95;;;0.85;;
67717;SDS011;54511;47.532;19.180;2023-07-22T13:14:10;0.50;;;0.50;;
67717;SDS011;54511;47.532;19.180;2023-07-22T13:17:20;0.65;;;0.65;;
67717;SDS011;54511;47.532;19.180;2023-07-22T13:20:14;1.12;;;0.68;;
67717;SDS011;54511;47.532;19.180;2023-07-22T13:23:41;0.75;;;0.70;;
67717;SDS011;54511;47.532;19.180;2023-07-22T13:26:13;0.70;;;0.70;;
67717;SDS011;54511;47.532;19.180;2023-07-22T13:28:57;1.45;;;0.90;;
67717;SDS011;54511;47.532;19.180;2023-07-22T13:31:25;0.77;;;0.70;;
67717;SDS011;54511;47.532;19.180;2023-07-22T13:34:10;0.90;;;0.73;;
67717;SDS011;54511;47.532;19.180;2023-07-22T13:36:40;0.77;;;0.73;;
67717;SDS011;54511;47.532;19.180;2023-07-22T13:39:36;1.45;;;0.90;;
67717;SDS011;54511;47.532;19.180;2023-07-22T13:42:04;0.75;;;0.75;;
67717;SDS011;54511;47.532;19.180;2023-07-22T13:45:03;1.90;;;0.88;;
67717;SDS011;54511;47.532;19.180;2023-07-22T13:50:19;1.15;;;0.80;;
67717;SDS011;54511;47.532;19.180;2023-07-22T13:53:15;0.75;;;0.70;;
67717;SDS011;54511;47.532;19.180;2023-07-22T13:56:22;0.80;;;0.77;;
67717;SDS011;54511;47.532;19.180;2023-07-22T13:59:12;1.42;;;1.00;;
67717;SDS011;54511;47.532;19.180;2023-07-22T14:02:41;0.68;;;0.68;;
67717;SDS011;54511;47.532;19.180;2023-07-22T14:05:34;1.00;;;0.90;;
67717;SDS011;54511;47.532;19.180;2023-07-22T14:08:41;1.08;;;0.90;;
67717;SDS011;54511;47.532;19.180;2023-07-22T14:11:33;0.70;;;0.70;;
67717;SDS011;54511;47.532;19.180;2023-07-22T14:14:01;1.83;;;0.98;;
67717;SDS011;54511;47.532;19.180;2023-07-22T14:16:57;1.02;;;0.93;;
67717;SDS011;54511;47.532;19.180;2023-07-22T14:19:44;1.23;;;0.90;;
67717;SDS011;54511;47.532;19.180;2023-07-22T14:22:44;0.93;;;0.70;;
67717;SDS011;54511;47.532;19.180;2023-07-22T14:25:11;0.93;;;0.82;;
67717;SDS011;54511;47.532;19.180;2023-07-22T14:28:02;0.82;;;0.80;;
67717;SDS011;54511;47.532;19.180;2023-07-22T14:30:33;1.02;;;0.80;;
67717;SDS011;54511;47.532;19.180;2023-07-22T14:33:57;1.73;;;1.02;;
67717;SDS011;54511;47.532;19.180;2023-07-22T14:36:27;0.93;;;0.82;;
67717;SDS011;54511;47.532;19.180;2023-07-22T14:39:15;1.20;;;0.88;;
67717;SDS011;54511;47.532;19.180;2023-07-22T14:41:49;1.37;;;0.80;;
67717;SDS011;54511;47.532;19.180;2023-07-22T14:44:36;1.73;;;0.90;;
67717;SDS011;54511;47.532;19.180;2023-07-22T14:47:06;1.25;;;0.80;;
67717;SDS011;54511;47.532;19.180;2023-07-22T14:49:34;2.00;;;1.00;;
67717;SDS011;54511;47.532;19.180;2023-07-22T14:52:41;1.05;;;0.90;;
67717;SDS011;54511;47.532;19.180;2023-07-22T14:55:09;0.77;;;0.77;;
67717;SDS011;54511;47.532;19.180;2023-07-22T14:58:16;0.75;;;0.70;;
67717;SDS011;54511;47.532;19.180;2023-07-22T15:01:08;1.05;;;0.88;;
67717;SDS011;54511;47.532;19.180;2023-07-22T15:04:50;0.75;;;0.70;;
67717;SDS011;54511;47.532;19.180;2023-07-22T15:07:39;1.25;;;1.10;;
67717;SDS011;54511;47.532;19.180;2023-07-22T15:10:37;1.48;;;1.10;;
67717;SDS011;54511;47.532;19.180;2023-07-22T15:13:04;1.33;;;0.82;;
67717;SDS011;54511;47.532;19.180;2023-07-22T15:15:52;1.17;;;0.90;;
67717;SDS011;54511;47.532;19.180;2023-07-22T15:18:59;1.23;;;0.77;;
67717;SDS011;54511;47.532;19.180;2023-07-22T15:21:48;0.80;;;0.73;;
67717;SDS011;54511;47.532;19.180;2023-07-22T15:24:35;1.60;;;0.80;;
67717;SDS011;54511;47.532;19.180;2023-07-22T15:27:26;1.65;;;1.10;;
67717;SDS011;54511;47.532;19.180;2023-07-22T15:30:36;0.60;;;0.60;;
67717;SDS011;54511;47.532;19.180;2023-07-22T15:33:24;1.23;;;0.75;;
67717;SDS011;54511;47.532;19.180;2023-07-22T15:36:12;0.95;;;0.80;;
67717;SDS011;54511;47.532;19.180;2023-07-22T15:39:19;0.82;;;0.82;;
67717;SDS011;54511;47.532;19.180;2023-07-22T15:41:56;1.58;;;1.15;;
67717;SDS011;54511;47.532;19.180;2023-07-22T15:44:45;1.37;;;1.00;;
67717;SDS011;54511;47.532;19.180;2023-07-22T15:47:15;1.08;;;0.80;;
67717;SDS011;54511;47.532;19.180;2023-07-22T15:49:42;0.98;;;0.80;;
67717;SDS011;54511;47.532;19.180;2023-07-22T15:52:09;1.08;;;0.80;;
67717;SDS011;54511;47.532;19.180;2023-07-22T15:54:37;0.60;;;0.60;;
67717;SDS011;54511;47.532;19.180;2023-07-22T15:57:04;1.30;;;0.90;;
67717;SDS011;54511;47.532;19.180;2023-07-22T16:00:31;1.58;;;0.88;;
67717;SDS011;54511;47.532;19.180;2023-07-22T16:02:58;1.42;;;0.77;;
67717;SDS011;54511;47.532;19.180;2023-07-22T16:06:08;0.80;;;0.80;;
67717;SDS011;54511;47.532;19.180;2023-07-22T16:08:36;0.75;;;0.60;;
67717;SDS011;54511;47.532;19.180;2023-07-22T16:11:43;1.37;;;0.82;;
67717;SDS011;54511;47.532;19.180;2023-07-22T16:14:13;2.17;;;1.30;;
67717;SDS011;54511;47.532;19.180;2023-07-22T16:17:03;2.05;;;0.80;;
67717;SDS011;54511;47.532;19.180;2023-07-22T16:20:11;0.95;;;0.80;;
67717;SDS011;54511;47.532;19.180;2023-07-22T16:22:58;0.88;;;0.88;;
67717;SDS011;54511;47.532;19.180;2023-07-22T16:25:33;0.95;;;0.80;;
67717;SDS011;54511;47.532;19.180;2023-07-22T16:28:21;1.10;;;1.00;;
67717;SDS011;54511;47.532;19.180;2023-07-22T16:31:08;2.03;;;1.42;;
67717;SDS011;54511;47.532;19.180;2023-07-22T16:34:16;3.08;;;0.90;;
67717;SDS011;54511;47.532;19.180;2023-07-22T16:37:24;1.73;;;1.12;;
67717;SDS011;54511;47.532;19.180;2023-07-22T16:40:11;1.62;;;0.80;;
67717;SDS011;54511;47.532;19.180;2023-07-22T16:42:54;0.82;;;0.70;;
67717;SDS011;54511;47.532;19.180;2023-07-22T16:45:37;1.65;;;1.10;;
67717;SDS011;54511;47.532;19.180;2023-07-22T16:48:24;1.70;;;1.10;;
67717;SDS011;54511;47.532;19.180;2023-07-22T16:51:42;0.73;;;0.73;;
67717;SDS011;54511;47.532;19.180;2023-07-22T16:54:47;2.17;;;1.00;;